»·PEaware :: N105MS KSLE-KPDX

N105MS :: KSLE-KPDX

FLIGHT INFORMATION

Flight Status: Arrived
Operator: Privately registered:
United States
More flights under this callsign
Pilot: Mike T. (22952)
Aircraft: CESSNA 172 SKYHAWK
(C172)
More flights by this aircraft type
Origin: KSLE McNary
United States
Destination: KPDX Portland Intl
United States
More flights between these airports :: More routes between these airports
Route: +UBG
File this flight plan on PilotEdge
Remarks:
Altitude:
(Current/Filed)
6,000ft
Speed:
(Current/Filed)
110kts
Departed: 09-Feb-20 11:28 AM
Arrived: 09-Feb-20 12:03 PM
Distance/Time
Traveled:
44nm/0:34
Distance/Time
To Go:
Arrived

Flight Plot

Page will automatically refresh every two minutes.

Flight plan parsing failed; only flown route is shown


Map Options




Map Legend


Flown Route
Filed Route
Departure Airport
Arrival Airport
Navaid (VOR, NDB)
Fix

Horizontal Profiles

Position Reports

Time Latitude Longitude Heading Altitude Ground
Speed
09-Feb-20 11:09 44.907314 -123.006431 3 203ft 0kts
09-Feb-20 11:10 44.907314 -123.006431 3 203ft 0kts
09-Feb-20 11:11 44.907314 -123.006431 3 203ft 0kts
09-Feb-20 11:12 44.907314 -123.006431 3 203ft 0kts
09-Feb-20 11:13 44.907314 -123.006431 3 203ft 0kts
09-Feb-20 11:14 44.907314 -123.006431 3 203ft 0kts
09-Feb-20 11:15 44.907314 -123.006431 3 203ft 0kts
09-Feb-20 11:16 44.907314 -123.006431 3 203ft 0kts
09-Feb-20 11:17 44.907314 -123.006431 3 203ft 0kts
09-Feb-20 11:18 44.907314 -123.006431 3 203ft 0kts
09-Feb-20 11:19 44.907314 -123.006431 3 203ft 0kts
09-Feb-20 11:20 44.907314 -123.006431 3 203ft 0kts
09-Feb-20 11:21 44.907553 -123.006033 115 203ft 8kts
09-Feb-20 11:22 44.904647 -123.005565 181 203ft 27kts
09-Feb-20 11:23 44.902469 -123.004496 136 204ft 0kts
09-Feb-20 11:24 44.902469 -123.004496 136 204ft 0kts
09-Feb-20 11:25 44.902467 -123.004496 136 204ft 0kts
09-Feb-20 11:26 44.902400 -123.003567 6 204ft 0kts
09-Feb-20 11:27 44.916160 -123.003670 351 947ft 61kts
09-Feb-20 11:28 44.933262 -123.005067 1 1990ft 60kts
09-Feb-20 11:29 44.950777 -123.004923 2 2932ft 68kts
09-Feb-20 11:30 44.969712 -123.003644 6 3855ft 74kts
09-Feb-20 11:31 44.991298 -123.002501 2 4778ft 77kts
09-Feb-20 11:32 45.011747 -122.999801 6 5674ft 75kts
09-Feb-20 11:33 45.035395 -122.998273 2 6029ft 102kts
09-Feb-20 11:34 45.066383 -122.999737 4 5958ft 113kts
09-Feb-20 11:35 45.097913 -123.000146 357 6020ft 109kts
09-Feb-20 11:36 45.129476 -122.996838 7 5954ft 116kts
09-Feb-20 11:37 45.160706 -122.990013 3 5986ft 118kts
09-Feb-20 11:38 45.193267 -122.992094 359 5980ft 112kts
09-Feb-20 11:39 45.224903 -122.991961 0 5987ft 116kts
09-Feb-20 11:40 45.256961 -122.988635 6 6008ft 113kts
09-Feb-20 11:41 45.288886 -122.983265 4 5990ft 114kts
09-Feb-20 11:42 45.320832 -122.982660 0 5961ft 118kts
09-Feb-20 11:43 45.352439 -122.979536 20 5996ft 116kts
09-Feb-20 11:44 45.382498 -122.961789 20 5970ft 115kts
09-Feb-20 11:45 45.412675 -122.946270 18 5964ft 118kts
09-Feb-20 11:46 45.443665 -122.932688 15 5943ft 118kts
09-Feb-20 11:47 45.474713 -122.919235 17 5920ft 119kts
09-Feb-20 11:48 45.506128 -122.904166 17 5467ft 124kts
09-Feb-20 11:49 45.540810 -122.893388 13 4190ft 129kts
09-Feb-20 11:50 45.575221 -122.879164 17 2871ft 129kts
09-Feb-20 11:51 45.605318 -122.866536 12 2475ft 99kts
09-Feb-20 11:52 45.629755 -122.852895 37 2480ft 92kts
09-Feb-20 11:53 45.650607 -122.830414 35 2465ft 97kts
09-Feb-20 11:54 45.669497 -122.804601 83 2488ft 96kts
09-Feb-20 11:55 45.667647 -122.766132 120 2504ft 93kts
09-Feb-20 11:56 45.653713 -122.735370 133 2553ft 96kts
09-Feb-20 11:57 45.636944 -122.703942 120 1935ft 98kts
09-Feb-20 11:58 45.624426 -122.671164 126 1247ft 81kts
09-Feb-20 11:59 45.614915 -122.647161 119 870ft 65kts
09-Feb-20 12:00 45.605898 -122.624382 122 606ft 57kts
09-Feb-20 12:01 45.597374 -122.602221 121 224ft 61kts
09-Feb-20 12:02 45.590821 -122.585529 121 32ft 24kts
09-Feb-20 12:03 45.587516 -122.583126 208 28ft 12kts

Navigation Log

Ident Type
Flight plan parsing failed, navigation log unavailable